createdAt,value
2022-07-25T03:25:03.279Z,10.80
2022-07-25T03:27:33.897Z,10.73
2022-07-25T03:30:04.598Z,11.55
2022-07-25T03:32:35.224Z,9.82
2022-07-25T03:35:05.777Z,18.30
2022-07-25T03:37:36.366Z,15.30
2022-07-25T03:40:08.051Z,12.80
2022-07-25T03:42:38.641Z,14.45
2022-07-25T03:45:09.745Z,9.40
2022-07-25T03:47:40.248Z,10.73
2022-07-25T03:50:11.107Z,11.23
2022-07-25T03:52:41.746Z,8.95
2022-07-25T03:55:13.805Z,12.45
2022-07-25T04:00:31.977Z,14.38
2022-07-25T04:03:02.391Z,12.70
2022-07-25T04:05:33.028Z,15.52
2022-07-25T04:08:03.460Z,20.05
2022-07-25T04:10:35.401Z,14.75
2022-07-25T04:13:06.409Z,13.68
2022-07-25T04:15:37.045Z,13.13
2022-07-25T04:18:09.175Z,15.85
2022-07-25T04:20:47.029Z,18.15
2022-07-25T04:23:17.887Z,9.43
2022-07-25T04:25:48.538Z,9.75
2022-07-25T04:28:18.973Z,8.52
2022-07-25T04:30:49.631Z,6.95
2022-07-25T04:33:21.501Z,5.72
2022-07-25T04:35:52.171Z,7.90
2022-07-25T04:38:22.877Z,8.02
2022-07-25T04:40:54.216Z,12.55
2022-07-25T04:43:25.276Z,7.85
2022-07-25T04:45:56.253Z,6.00
2022-07-25T04:48:26.852Z,7.20
2022-07-25T04:50:57.730Z,8.20
2022-07-25T04:53:28.340Z,6.03
2022-07-25T04:55:58.964Z,7.68
2022-07-25T04:58:29.441Z,6.25
2022-07-25T05:01:00.885Z,6.78
2022-07-25T05:03:31.342Z,6.72
2022-07-25T05:06:01.843Z,8.70
2022-07-25T05:08:32.956Z,13.45
2022-07-25T05:13:49.105Z,13.05
2022-07-25T05:16:19.706Z,6.28
2022-07-25T05:18:51.463Z,6.80
2022-07-25T05:21:21.978Z,8.45
2022-07-25T05:23:53.043Z,8.30
2022-07-25T05:26:24.047Z,5.40
2022-07-25T05:28:54.545Z,4.68
2022-07-25T05:31:25.341Z,4.32
2022-07-25T05:33:55.787Z,6.28
2022-07-25T05:36:26.291Z,6.90
2022-07-25T05:38:56.748Z,7.05
2022-07-25T05:41:27.336Z,5.63
2022-07-25T05:43:57.844Z,11.00
2022-07-25T05:46:28.521Z,6.47
2022-07-25T05:48:59.263Z,4.22
2022-07-25T05:51:30.284Z,4.05
2022-07-25T05:54:00.787Z,3.70
2022-07-25T05:56:32.349Z,4.80
2022-07-25T05:59:02.779Z,5.97
2022-07-25T06:01:33.480Z,5.10
2022-07-25T06:04:04.465Z,7.47
2022-07-25T06:06:35.380Z,4.90
2022-07-25T06:09:08.067Z,6.03
2022-07-25T06:11:48.672Z,4.35
2022-07-25T06:14:25.381Z,3.55
2022-07-25T06:19:42.073Z,6.95
2022-07-25T06:22:13.510Z,7.47
2022-07-25T06:24:45.413Z,5.38
2022-07-25T06:27:20.205Z,8.75
2022-07-25T06:29:51.633Z,6.85
2022-07-25T06:32:24.682Z,6.03
2022-07-25T06:34:55.008Z,5.50
2022-07-25T06:37:25.543Z,9.10
2022-07-25T06:39:55.917Z,4.00
2022-07-25T06:42:26.334Z,6.47
2022-07-25T06:44:56.594Z,12.63
2022-07-25T06:47:26.973Z,6.45
2022-07-25T06:49:57.460Z,5.15
2022-07-25T06:52:27.923Z,5.53
2022-07-25T06:54:58.311Z,7.57
2022-07-25T06:57:28.730Z,5.43
2022-07-25T06:59:59.253Z,3.53
2022-07-25T07:02:29.803Z,3.97
2022-07-25T07:05:00.120Z,3.95
2022-07-25T07:07:30.644Z,4.63
2022-07-25T07:10:01.013Z,3.75
2022-07-25T07:12:31.559Z,2.60
2022-07-25T07:15:02.027Z,4.70
2022-07-25T07:17:32.476Z,2.22
2022-07-25T07:20:02.845Z,2.78
2022-07-25T07:22:34.228Z,3.67
2022-07-25T07:25:04.903Z,3.70
2022-07-25T07:27:36.798Z,1.13
2022-07-25T07:30:07.426Z,1.30
2022-07-25T07:32:40.214Z,2.00
2022-07-25T07:35:11.076Z,2.47
2022-07-25T07:37:43.676Z,2.83
2022-07-25T07:40:18.121Z,3.60
2022-07-25T07:42:51.003Z,2.50
2022-07-25T07:45:25.294Z,3.50
2022-07-25T07:47:58.442Z,8.07
2022-07-25T07:50:30.699Z,8.07
2022-07-25T07:53:01.279Z,6.90
2022-07-25T07:55:47.876Z,5.72
2022-07-25T07:58:20.099Z,8.90
2022-07-25T08:00:54.100Z,4.75
2022-07-25T08:03:24.865Z,4.97
2022-07-25T08:05:55.281Z,9.82
2022-07-25T08:08:30.746Z,3.97
2022-07-25T08:13:48.476Z,9.88
2022-07-25T08:16:19.279Z,7.90
2022-07-25T08:18:49.889Z,7.88
2022-07-25T08:21:20.230Z,8.52
2022-07-25T08:23:51.025Z,3.03
2022-07-25T08:41:50.795Z,7.60
2022-07-25T08:47:36.014Z,3.03
2022-07-25T08:50:18.940Z,4.28
2022-07-25T08:53:04.582Z,6.10
2022-07-25T08:55:56.720Z,4.00
2022-07-25T09:01:34.462Z,7.03
2022-07-25T09:04:18.421Z,6.68
2022-07-25T09:16:11.766Z,7.65
2022-07-25T09:19:23.665Z,9.40
2022-07-25T09:24:49.152Z,12.52
2022-07-25T09:27:45.477Z,6.78
2022-07-25T09:33:50.146Z,7.00
2022-07-25T09:39:46.978Z,8.07
2022-07-25T09:48:23.228Z,8.25
2022-07-25T09:51:32.781Z,16.92
2022-07-25T10:03:34.597Z,16.15
2022-07-25T10:06:35.558Z,8.23
2022-07-25T10:09:28.986Z,9.75
2022-07-25T10:12:16.232Z,4.97
2022-07-25T10:15:17.597Z,9.48
2022-07-25T10:18:14.086Z,9.60
2022-07-25T10:21:29.228Z,8.23
2022-07-25T10:24:35.042Z,19.08
2022-07-25T10:27:26.049Z,11.38
2022-07-25T10:33:00.868Z,9.18
2022-07-25T10:36:10.591Z,9.85
2022-07-25T10:39:11.944Z,13.43
2022-07-25T10:41:46.828Z,9.32
2022-07-25T10:44:21.348Z,9.50
2022-07-25T10:50:58.539Z,7.72
2022-07-25T10:56:28.917Z,7.55
2022-07-25T10:59:04.779Z,5.70
2022-07-25T11:01:42.877Z,6.20
2022-07-25T11:10:56.619Z,10.00
2022-07-25T11:13:47.191Z,6.47
2022-07-25T11:16:32.841Z,5.25
2022-07-25T11:25:35.232Z,9.30
2022-07-25T11:31:47.061Z,6.65
2022-07-25T11:34:57.616Z,16.30
2022-07-25T11:37:47.638Z,13.20
2022-07-25T11:40:44.934Z,8.10
2022-07-25T11:43:26.769Z,8.38
2022-07-25T11:46:14.563Z,17.13
2022-07-25T11:48:45.371Z,11.55
2022-07-25T11:51:54.672Z,10.90
2022-07-25T11:57:48.380Z,17.35
2022-07-25T12:00:57.553Z,12.95
2022-07-25T12:03:28.018Z,14.20
2022-07-25T12:06:17.947Z,11.93
2022-07-25T12:12:07.952Z,19.75
2022-07-25T12:19:08.241Z,15.27
2022-07-25T12:24:53.270Z,12.63
2022-07-25T12:38:46.537Z,6.80
2022-07-25T12:41:18.901Z,12.93
2022-07-25T12:43:53.065Z,7.55
2022-07-25T12:49:11.557Z,9.23
2022-07-25T12:51:57.892Z,10.32
2022-07-25T12:57:42.754Z,12.13
2022-07-25T13:00:16.451Z,11.63
2022-07-25T13:09:50.557Z,5.45
2022-07-25T13:22:03.077Z,8.20
2022-07-25T13:30:51.201Z,8.20
2022-07-25T13:48:50.623Z,9.23
2022-07-25T13:51:20.958Z,8.00
2022-07-25T13:53:51.318Z,5.57
2022-07-25T13:59:36.795Z,8.63
2022-07-25T14:02:26.598Z,12.43
2022-07-25T14:07:50.447Z,10.02
2022-07-25T14:10:40.347Z,10.73
2022-07-25T14:19:51.941Z,13.27
2022-07-25T14:32:18.393Z,9.45
2022-07-25T14:41:06.708Z,10.40
2022-07-25T14:43:54.879Z,15.82
2022-07-25T14:46:36.590Z,19.77
2022-07-25T14:49:31.093Z,8.57
2022-07-25T14:52:01.549Z,9.88
2022-07-25T14:57:57.295Z,10.52
2022-07-25T15:03:14.986Z,12.68
2022-07-25T15:05:57.926Z,9.45
2022-07-25T15:08:48.676Z,7.78
2022-07-25T15:11:19.110Z,12.02
2022-07-25T15:16:49.414Z,12.68
2022-07-25T15:22:21.627Z,14.50
2022-07-25T15:28:40.514Z,9.50
2022-07-25T15:31:10.888Z,13.15
2022-07-25T15:33:41.336Z,15.15
2022-07-25T15:39:56.068Z,12.60
2022-07-25T15:42:46.390Z,10.13
2022-07-25T15:48:54.430Z,10.05
2022-07-25T15:51:27.195Z,6.40
2022-07-25T15:53:58.389Z,8.15
2022-07-25T15:59:53.669Z,7.70
2022-07-25T16:05:46.171Z,4.95
2022-07-25T16:11:23.681Z,5.20
2022-07-25T16:14:04.768Z,4.00
2022-07-25T16:16:56.388Z,5.10
2022-07-25T16:20:05.561Z,7.40
2022-07-25T16:22:36.559Z,6.30
2022-07-25T16:25:27.005Z,2.75
2022-07-25T16:28:36.220Z,1.88
2022-07-25T16:31:07.494Z,5.80
2022-07-25T16:36:39.923Z,7.50
2022-07-25T16:48:16.018Z,4.40
2022-07-25T16:54:11.023Z,5.20
2022-07-25T17:06:02.287Z,6.38
2022-07-25T17:08:46.604Z,4.43
2022-07-25T17:11:16.931Z,5.93
2022-07-25T17:13:55.517Z,6.63
2022-07-25T17:16:26.224Z,5.35
2022-07-25T17:23:04.566Z,5.47
2022-07-25T17:26:07.961Z,6.22
2022-07-25T17:28:45.160Z,7.43
2022-07-25T17:31:18.906Z,10.30
2022-07-25T17:33:49.624Z,5.68
2022-07-25T17:36:22.510Z,4.80
2022-07-25T17:50:51.904Z,6.93
2022-07-25T17:56:44.141Z,10.55
2022-07-25T18:12:02.080Z,7.00
2022-07-25T18:15:11.767Z,7.30
2022-07-25T18:18:01.501Z,6.43
2022-07-25T18:26:26.249Z,9.10
2022-07-25T18:36:37.401Z,9.35
2022-07-25T18:39:12.305Z,11.15
2022-07-25T18:44:53.453Z,6.50
2022-07-25T18:52:58.430Z,8.30
2022-07-25T18:56:03.775Z,7.18
2022-07-25T18:58:53.508Z,13.70
2022-07-25T19:01:24.761Z,10.57
2022-07-25T19:12:36.398Z,10.50
2022-07-25T19:17:54.836Z,8.50
2022-07-25T19:23:33.218Z,9.05
2022-07-25T19:29:36.746Z,13.40
2022-07-25T19:32:08.413Z,7.43
2022-07-25T19:37:46.645Z,10.38
2022-07-25T19:43:42.083Z,11.05
2022-07-25T19:53:00.520Z,9.35
2022-07-25T20:04:18.126Z,15.80
2022-07-25T20:06:48.422Z,19.40
2022-07-25T20:09:18.980Z,19.58
2022-07-25T20:11:49.389Z,12.20
2022-07-25T20:14:19.689Z,13.50
2022-07-25T20:16:57.727Z,11.65
2022-07-25T20:44:00.977Z,13.90
2022-07-25T20:46:31.702Z,17.65
2022-07-25T20:49:25.427Z,14.93
2022-07-25T20:51:55.830Z,8.82
2022-07-25T20:54:44.628Z,17.63
2022-07-25T21:05:46.900Z,7.43
2022-07-25T21:08:19.781Z,7.93
2022-07-25T21:10:50.056Z,6.38
2022-07-25T21:16:13.474Z,8.73
2022-07-25T21:21:17.527Z,9.80
2022-07-25T21:26:35.328Z,6.40
2022-07-25T21:29:14.782Z,5.93
2022-07-25T21:35:20.589Z,7.07
2022-07-25T21:37:52.676Z,3.88
2022-07-25T21:40:22.907Z,6.63
2022-07-25T21:48:51.491Z,5.28
2022-07-25T22:00:06.939Z,5.88
2022-07-25T22:05:43.191Z,4.95
2022-07-25T22:08:14.782Z,6.22
2022-07-25T22:13:31.432Z,3.92
2022-07-25T22:16:34.725Z,5.47
2022-07-25T22:22:08.841Z,7.60
2022-07-25T22:24:41.954Z,4.30
2022-07-25T22:30:20.116Z,5.35
2022-07-25T22:36:13.707Z,11.27
2022-07-25T22:41:27.717Z,5.65
2022-07-25T22:43:59.973Z,6.97
2022-07-25T22:49:53.079Z,8.50
2022-07-25T22:52:25.304Z,7.38
2022-07-25T22:54:56.023Z,5.63
2022-07-25T22:57:30.345Z,5.78
2022-07-25T23:02:54.556Z,7.90
2022-07-25T23:05:26.963Z,6.20
2022-07-25T23:13:23.005Z,7.05
2022-07-25T23:19:04.612Z,6.95
2022-07-25T23:21:36.620Z,7.25
2022-07-25T23:24:09.454Z,5.70
2022-07-25T23:26:39.736Z,4.80
2022-07-25T23:29:10.104Z,6.88
2022-07-25T23:34:24.343Z,7.40
2022-07-25T23:37:14.207Z,7.88
2022-07-25T23:42:46.615Z,7.75
